Tiempo atmosférico en la estación meteorológica de Buitrago del Lozoya, Madrid (1026 m.)



Fecha
DESCASC
Temp. máxima en grados centígrados (hora)
DESCASC
Temp. mínima en grados centígrados (hora)
DESCASC
Temp. media en grados centígrados
DESCASC
Racha de viento máxima en m/sg (hora)
DESCASC
Velocidad máxima media en intervalos de 10 minutos(hora)
DESCASC
Precipitaciones diarias en mm
DESCASC
Precipitaciones de 00:00 a 06:00 en mm
DESCASC
Precipitaciones de 06:00 a 12:00 en mm
DESCASC
Precipitaciones de 12:00 a 18:00 en mm
DESCASC
Precipitaciones de 18:00 a 24:00 en mm
DESCASC
29-03-2020 -- (--) -- (--) -- -- (--) -- (--) -- -- -- -- 0
28-03-2020 -- (--) -- (--) -- -- (--) -- (--) -- 0 0 0 --
27-03-2020 9.8 (16:00) -0.6 (23:59) 4.6 8.61 (13:30) 4.44 (13:30) 0 0 0 0 0
26-03-2020 10.7 (15:00) 1.5 (00:00) 6.1 11.94 (15:20) 6.11 (09:10) 0 0 0 0 0
25-03-2020 14.7 (15:20) -0.7 (-00:0) 7 9.17 (16:00) 5 (17:40) 0 0 0 0 0
24-03-2020 12.9 (17:30) 2.7 (00:00) 7.8 7.5 (13:30) 3.61 (13:30) 0 0 0 0 0
23-03-2020 12.5 (15:20) 6 (00:00) 9.3 7.78 (14:00) 4.72 (16:10) 0.5 0.2 0.1 0.1 0.1
22-03-2020 11.1 (18:00) 4.8 (04:50) 8 4.17 (13:00) 1.94 (13:00) 2.7 0.9 1.7 0.1 0
21-03-2020 7.9 (17:00) 5.1 (00:00) 6.5 5.28 (17:20) 2.5 (17:20) 3 0.5 0 0.5 2
20-03-2020 9.5 (15:10) 4.7 (00:00) 7.1 4.44 (10:00) 2.22 (10:00) 0 0 0 0 0
19-03-2020 14.9 (16:00) 3.7 (00:00) 9.3 5.28 (13:10) 2.78 (14:10) 0 0 0 0 0
18-03-2020 17.1 (15:00) 5 (00:00) 11.1 4.44 (14:50) 2.22 (15:30) 0 0 0 0 0
17-03-2020 13.3 (14:40) 1.3 (00:00) 7.3 9.72 (14:50) 4.44 (15:20) 6.2 5.9 0.3 0 0
16-03-2020 8.7 (00:10) 1.8 (00:00) 5.2 11.39 (13:30) 5.28 (13:30) 15.6 3.2 3.6 1.4 7.4
15-03-2020 17.6 (15:50) 2.1 (00:00) 9.9 11.67 (19:40) 5.28 (16:40) 2 0 0 0 2
14-03-2020 19.7 (15:10) 3.9 (00:00) 11.8 7.5 (17:40) 2.78 (18:00) 0 0 0 0 0
13-03-2020 20.5 (15:20) 7.2 (07:50) 13.8 6.11 (16:40) 2.78 (11:00) 0 0 0 0 0
12-03-2020 23.1 (14:50) 5.5 (00:00) 14.3 9.17 (14:50) 4.72 (15:30) 0 0 0 0 0
11-03-2020 23.4 (15:30) 5.3 (00:00) 14.3 5.83 (16:50) 3.06 (16:10) 0 0 0 0 0
10-03-2020 20.3 (18:20) 6.1 (00:00) 13.2 7.78 (01:40) 3.89 (00:40) 0 0 0 0 0
09-03-2020 12.2 (16:00) 5.4 (00:00) 8.8 11.39 (06:20) 5.83 (13:20) 0 0 0 0 0
08-03-2020 16.8 (14:30) -3.3 (-00:0) 6.7 10.56 (16:20) 5.28 (16:30) 0 0 0 0 0
07-03-2020 12 (15:50) 1.6 (00:00) 6.8 11.11 (13:50) 6.11 (09:50) 0 0 0 0 0
06-03-2020 -- (--) -- (--) -- -- (--) -- (--) -- 0.4 -- 0 0
05-03-2020 10.8 (12:20) 4.8 (00:00) 7.8 17.78 (15:10) 8.06 (15:20) 1.8 0 0.2 0 1.6
04-03-2020 14 (14:50) 9.7 (00:00) 11.8 14.44 (08:30) 7.78 (08:30) 0.4 0.3 0.1 0 0
03-03-2020 14.3 (16:10) 3.8 (00:00) 9.1 18.33 (13:30) 8.33 (13:20) 0.5 0 0.5 0 0
02-03-2020 12.1 (04:30) 1.4 (00:00) 6.8 25.56 (06:20) 10.83 (06:00) 10.2 3.1 5 2.1 0
01-03-2020 14.2 (16:00) 6.2 (00:00) 10.2 12.22 (16:20) 5.56 (16:20) 2.1 0 0 0 2.1
29-02-2020 14.4 (16:20) 0.9 (00:00) 7.6 9.17 (16:20) 4.72 (16:40) 0 0 0 0 0

Gráficas

Temp. máximas Temp. mínimas Temp. medias Precipitaciones Rachas de viento máximas Velocidades máximas media en intervalos de 10 minutos

Datos horarios

Fecha y hora oficial Temperatura (ºC) Velocidad del viento (km/h) Dirección del viento Racha (km/h) Dirección de racha Precipitación (mm) Presión (hPa) Tendencia (hPa) Humedad (%)
2020-03-29 23:00:00 9.1 9 Noroeste 26 Norte 0 901 0.3 46
2020-03-29 22:00:00 9.5 12 Noroeste 28 Noroeste 0 900.7 0.3 43
2020-03-29 21:00:00 11 10 Norte 24 Norte 0 900.6 -- 37
2020-03-29 20:00:00 12.6 8 Noroeste 25 Noroeste 0 900.7 -- 37
2020-03-29 19:00:00 14.2 14 Noroeste 30 Noroeste 0 900.4 -- 34
2020-03-29 18:00:00 -- -- -- -- -- -- -- -- --
2020-03-29 17:00:00 -- -- -- -- -- -- -- -- --
2020-03-29 16:00:00 -- -- -- -- -- -- -- -- --
2020-03-29 15:00:00 -- -- -- -- -- -- -- -- --
2020-03-29 14:00:00 -- -- -- -- -- -- -- -- --
2020-03-29 13:00:00 -- -- -- -- -- -- -- -- --
2020-03-29 12:00:00 -- -- -- -- -- -- -- -- --
2020-03-29 11:00:00 -- -- -- -- -- -- -- -- --
2020-03-29 10:00:00 -- -- -- -- -- -- -- -- --
2020-03-29 09:00:00 -- -- -- -- -- -- -- -- --
2020-03-29 08:00:00 -- -- -- -- -- -- -- -- --
2020-03-29 07:00:00 -- -- -- -- -- -- -- -- --
2020-03-29 06:00:00 -- -- -- -- -- -- -- -- --
2020-03-29 05:00:00 -- -- -- -- -- -- -- -- --
2020-03-29 03:00:00 -- -- -- -- -- -- -- -- --
2020-03-29 01:00:00 -- -- -- -- -- -- -- -- --
2020-03-29 00:00:00 -- -- -- -- -- -- -- -- --
2020-03-28 23:00:00 -- -- -- -- -- -- -- -- --
2020-03-28 22:00:00 -- -- -- -- -- -- -- -- --
2020-03-28 21:00:00 -- -- -- -- -- -- -- -- --
2020-03-28 20:00:00 11.1 3 Sur 6 Sudeste 0 902.6 1 43
2020-03-28 19:00:00 12.6 5 Sudeste 12 Sur 0 902.2 0.4 37
2020-03-28 18:00:00 13 6 Sudeste 19 Sudeste 0 901.6 -0.3 36
2020-03-28 17:00:00 13.7 3 Sur 18 Sudeste 0 901.6 -0.7 34
2020-03-28 16:00:00 13.9 9 Sur 19 Sur 0 901.8 -0.6 35
2020-03-28 15:00:00 13.6 8 Sur 20 Sur 0 901.9 -0.9 36
2020-03-28 14:00:00 12.8 5 Oeste 15 Oeste 0 902.3 -0.6 36
2020-03-28 13:00:00 12.2 5 Sudeste 18 Sur 0 902.4 -0.4 37
2020-03-28 12:00:00 11.1 4 Sur 18 Este 0 902.8 0.2 39
2020-03-28 11:00:00 9.6 4 Sur 10 Sudoeste 0 902.9 0.3 46
2020-03-28 10:00:00 7.1 4 Oeste 8 Oeste 0 902.8 0.7 62
2020-03-28 09:00:00 3.6 3 Sudoeste 9 Oeste 0 902.6 1.1 76
2020-03-28 08:00:00 -0.3 4 Oeste 8 Oeste 0 902.6 1.3 90
2020-03-28 07:00:00 -2.6 3 Noroeste 5 Noroeste 0 902.1 0.9 90
2020-03-28 06:00:00 -2.4 4 Noroeste 7 Noroeste 0 901.5 0.3 88
2020-03-28 05:00:00 -1.2 4 Oeste 10 Oeste 0 901.3 0.2 89
2020-03-28 04:00:00 -2.3 3 Noroeste 7 Oeste 0 901.2 0.4 88
2020-03-28 03:00:00 -1.3 2 Noroeste 6 Oeste 0 901.2 0.8 88
2020-03-28 02:00:00 -1.6 0 Calma 3 Noroeste 0 901.1 1.1 88
2020-03-28 01:00:00 -0.7 0 Calma 4 Noroeste 0 900.8 1 86
2020-03-28 00:00:00 -0.6 0 Calma 5 Noroeste 0 900.4 1.3 84
2020-03-27 23:00:00 0.1 0 Calma 5 Sudoeste 0 900 1.8 79
2020-03-27 22:00:00 2 0 Calma 8 Sur 0 899.8 2.4 73
2020-03-27 21:00:00 2.6 0 Calma 8 Noroeste 0 899.1 2 69
2020-03-27 20:00:00 4.5 0 Calma 7 Sur 0 898.2 1.2 61
2020-03-27 19:00:00 7.9 4 Sudeste 12 Sur 0 897.4 0.5 46
2020-03-27 18:00:00 8.8 8 Sudeste 22 Sur 0 897.1 -0.2 43
2020-03-27 17:00:00 8.8 10 Sudeste 24 Sudoeste 0 897 -0.4 43
2020-03-27 16:00:00 9.5 13 Sur 26 Sur 0 896.9 -0.4 47
2020-03-27 15:00:00 7.9 11 Sudeste 30 Sudeste 0 897.3 0 49
2020-03-27 14:00:00 7.2 8 Sudeste 31 Sudeste 0 897.4 0.1 48
2020-03-27 13:00:00 7.8 14 Sudeste 24 Sudeste 0 897.3 0.2 48
2020-03-27 12:00:00 7.2 3 Este 17 Sur 0 897.3 0.5 51
2020-03-27 11:00:00 6.1 3 Sudeste 13 Sur 0 897.3 0.6 52
2020-03-27 10:00:00 5.1 0 Calma 13 Oeste 0 897.1 1.1 57
2020-03-27 09:00:00 3.2 4 Oeste 11 Sudoeste 0 896.8 1 66
2020-03-27 08:00:00 1.4 4 Oeste 8 Noroeste 0 896.7 1.3 76
2020-03-27 07:00:00 1.2 3 Oeste 7 Noroeste 0 896 0.6 77
2020-03-27 06:00:00 1 4 Oeste 12 Oeste 0 895.8 0.4 74
2020-03-27 05:00:00 2.1 3 Sudoeste 13 Sudoeste 0 895.4 0.1 64
2020-03-27 04:00:00 2.5 3 Sudeste 17 Norte 0 895.4 -0.1 61
2020-03-27 03:00:00 3.2 6 Norte 26 Norte 0 895.4 0 59
2020-03-27 02:00:00 4 9 Norte 21 Norte 0 895.3 -0.3 59
2020-03-27 01:00:00 4.7 6 Noroeste 19 Noroeste 0 895.5 -0.2 55
2020-03-27 00:00:00 4.9 6 Noroeste 12 Noroeste 0 895.4 -0.2 51
2020-03-26 23:00:00 5.4 5 Norte 15 Noroeste 0 895.6 0.1 52
2020-03-26 22:00:00 4.6 8 Noroeste 15 Noroeste 0 895.7 0.4 58
2020-03-26 21:00:00 4.8 7 Noroeste 18 Norte 0 895.6 0.8 51
2020-03-26 20:00:00 6.4 6 Noroeste 22 Noroeste 0 895.5 0.7 46
2020-03-26 19:00:00 7.9 14 Noroeste 26 Noroeste 0 895.3 0.5 42
2020-03-26 18:00:00 8.7 8 Noroeste 30 Norte 0 894.8 -0.1 41
2020-03-26 17:00:00 8.6 17 Noroeste 41 Norte 0 894.8 -0.2 41
2020-03-26 16:00:00 10 15 Norte 43 Norte 0 894.8 -0.6 41
2020-03-26 15:00:00 10.4 17 Norte 40 Noroeste 0 894.9 -0.5 41
2020-03-26 14:00:00 9.6 19 Noroeste 42 Norte 0 895 -0.9 42
2020-03-26 13:00:00 9.1 17 Noroeste 42 Noroeste 0 895.4 -0.5 42
2020-03-26 12:00:00 8.7 16 Norte 41 Noroeste 0 895.4 -0.6 43
2020-03-26 11:00:00 6.7 18 Noroeste 42 Norte 0 895.9 -0.3 47
2020-03-26 10:00:00 6.1 16 Noroeste 42 Norte 0 895.9 -0.2 48
2020-03-26 09:00:00 5.7 18 Noroeste 38 Noroeste 0 896 -0.2 45
2020-03-26 08:00:00 4.6 9 Noroeste 21 Noroeste 0 896.2 0.1 36
2020-03-26 07:00:00 2.2 10 Noroeste 17 Noroeste 0 896.1 -0.1 35
2020-03-26 06:00:00 3.6 10 Noroeste 27 Noroeste 0 896.2 -0.6 27
2020-03-26 05:00:00 4.3 11 Noroeste 34 Oeste 0 896.1 -1.2 26
2020-03-26 04:00:00 4.6 11 Noroeste 30 Noroeste 0 896.2 -1.5 26
2020-03-26 03:00:00 5.1 14 Noroeste 30 Noroeste 0 896.8 -0.9 26
2020-03-26 02:00:00 5.9 8 Noroeste 22 Noroeste 0 897.3 -0.5 25
2020-03-26 01:00:00 6.4 5 Norte 24 Noroeste 0 897.7 -0.1 30
2020-03-26 00:00:00 7.8 13 Noroeste 27 Noroeste 0 897.7 -0.2 38
2020-03-25 23:00:00 8.2 12 Noroeste 23 Noroeste 0 897.8 0 39
2020-03-25 22:00:00 8.3 7 Norte 18 Norte 0 897.8 -0.1 42
2020-03-25 21:00:00 6.3 7 Noroeste 14 Noroeste 0 897.9 0.1 54
2020-03-25 20:00:00 8.6 8 Noroeste 15 Noroeste 0 897.8 -0.1 42
2020-03-25 19:00:00 12.5 10 Noroeste 24 Noroeste 0 897.9 -0.5 32
2020-03-25 18:00:00 13.9 11 Noroeste 32 Oeste 0 897.8 -1.1 31
2020-03-25 17:00:00 14.1 11 Noroeste 32 Noroeste 0 897.9 -1.6 31
2020-03-25 16:00:00 14.3 16 Noroeste 33 Noroeste 0 898.4 -1.5 35
2020-03-25 15:00:00 13.9 12 Noroeste 29 Noroeste 0 898.9 -1.2 36
2020-03-25 14:00:00 13.3 16 Noroeste 29 Noroeste 0 899.5 -0.8 36
2020-03-25 13:00:00 13.2 12 Noroeste 25 Noroeste 0 899.9 -0.7 41
2020-03-25 12:00:00 12.2 3 Noroeste 20 Oeste 0 900.1 -0.5 43
2020-03-25 11:00:00 11.7 0 Calma 10 Sudeste 0 900.3 -0.6 54
2020-03-25 10:00:00 8.2 2 Este 9 Oeste 0 900.6 -0.2 70
2020-03-25 09:00:00 4.8 3 Oeste 7 Oeste 0 900.6 -0.4 87
2020-03-25 08:00:00 0.8 0 Calma 4 Noroeste 0 900.9 -0.2 92
2020-03-25 07:00:00 -0.7 0 Calma 4 Noroeste 0 900.8 -0.6 92
2020-03-25 06:00:00 -0.3 0 Calma 5 Noroeste 0 901 -0.5 91
2020-03-25 05:00:00 -0.1 0 Calma 4 Noroeste 0 901.1 -0.6 90
2020-03-25 04:00:00 0.3 0 Calma 6 Noroeste 0 901.4 -0.4 89
2020-03-25 03:00:00 0.7 3 Oeste 5 Oeste 0 901.5 -0.3 88
2020-03-25 02:00:00 1.4 0 Calma 4 Noroeste 0 901.7 0.1 86
2020-03-25 01:00:00 2.2 2 Noroeste 4 Noroeste 0 901.8 0.3 85
2020-03-25 00:00:00 2.7 3 Noroeste 9 Noroeste 0 901.8 0.5 79
2020-03-24 23:00:00 4.5 0 Calma 12 Noroeste 0 901.6 0.6 74
2020-03-24 22:00:00 5.5 4 Noroeste 11 Oeste 0 901.5 0.9 72
2020-03-24 21:00:00 5.7 4 Noroeste 6 Noroeste 0 901.3 1.1 70
2020-03-24 20:00:00 8 0 Calma 6 Este 0 901 0.9 58
2020-03-24 19:00:00 10.8 4 Este 16 Sudeste 0 900.6 0.2 48
2020-03-24 18:00:00 11.7 5 Este 14 Este 0 900.2 -0.7 45
2020-03-24 17:00:00 12.3 6 Sudeste 14 Sur 0 900.1 -1.5 45
2020-03-24 16:00:00 12.6 7 Nordeste 21 Norte 0 900.4 -1.4 45
2020-03-24 15:00:00 11.1 8 Este 22 Este 0 900.9 -1.1 49
2020-03-24 14:00:00 11.4 9 Este 27 Este 0 901.6 -0.5 49
2020-03-24 13:00:00 12.4 11 Nordeste 25 Nordeste 0 901.8 -0.4 51
2020-03-24 12:00:00 10.2 10 Nordeste 21 Nordeste 0 902 0.3 56
2020-03-24 11:00:00 9.9 5 Nordeste 19 Nordeste 0 902.1 0.3 59
2020-03-24 10:00:00 8.7 4 Sudoeste 9 Oeste 0 902.2 0.8 70
2020-03-24 09:00:00 7 0 Calma 6 Sudeste 0 901.7 0.1 83
2020-03-24 08:00:00 5.9 0 Calma 10 Sur 0 901.8 0.3 84
2020-03-24 07:00:00 5.8 2 Nordeste 13 Norte 0 901.4 -0.2 84
2020-03-24 06:00:00 4.3 0 Calma 9 Noroeste 0 901.6 0.3 89
2020-03-24 05:00:00 4.8 0 Calma 7 Sur 0 901.5 -0.4 88
2020-03-24 04:00:00 5.5 2 Norte 7 Nordeste 0 901.6 -0.2 85
2020-03-24 03:00:00 6.6 3 Sur 8 Sudeste 0 901.3 -0.7 86
2020-03-24 02:00:00 6.2 0 Calma 8 Sudeste 0 901.9 0.1 90
2020-03-24 01:00:00 6.6 2 Noroeste 7 Oeste 0 901.8 0.1 89
2020-03-24 00:00:00 7 4 Noroeste 9 Noroeste 0.1 902 0.6 86
2020-03-23 23:00:00 6.7 0 Calma 5 Noroeste 0 901.8 0.9 83
2020-03-23 22:00:00 6.4 3 Noroeste 6 Norte 0 901.7 1.3 80
2020-03-23 21:00:00 6.9 0 Calma 6 Norte 0 901.4 1.3 76
2020-03-23 20:00:00 8.3 0 Calma 12 Nordeste 0 900.9 0.7 69
2020-03-23 19:00:00 9.3 6 Nordeste 23 Nordeste 0 900.4 0.4 63
2020-03-23 18:00:00 9.4 10 Nordeste 27 Nordeste 0 900.1 0 64
2020-03-23 17:00:00 9.3 3 Sudeste 27 Sudeste 0 900.2 -0.3 77
2020-03-23 16:00:00 10.5 14 Sudeste 24 Sudeste 0 900 -1.3 63
2020-03-23 15:00:00 11.4 8 Sudeste 19 Sudeste 0 900.1 -1.3 57
2020-03-23 14:00:00 11.3 12 Sudeste 28 Sudeste 0 900.5 -0.6 62
2020-03-23 13:00:00 9 10 Sudeste 24 Sudeste 0.1 901.3 0.3 73
2020-03-23 12:00:00 8.4 6 Este 14 Este 0 901.4 1 73
2020-03-23 11:00:00 8.4 4 Este 9 Sudeste 0.1 901.1 0.9 79
2020-03-23 10:00:00 7.8 5 Sur 9 Sudeste 0 901 1.3 80
2020-03-23 09:00:00 7.4 3 Sudeste 7 Sudeste 0 900.4 1 90
2020-03-23 08:00:00 6.3 0 Calma 6 Oeste 0 900.2 1 90
2020-03-23 07:00:00 6.2 3 Oeste 6 Oeste 0 899.7 0.7 90
2020-03-23 06:00:00 6.6 0 Calma 7 Sudeste 0.1 899.4 0.2 87
2020-03-23 05:00:00 6.7 0 Calma 4 Noroeste 0.1 899.2 0 87
2020-03-23 04:00:00 6.8 0 Calma 8 Sur 0 899 -0.3 86
2020-03-23 03:00:00 7 2 Sudeste 6 Sudeste 0 899.2 -0.3 84
2020-03-23 02:00:00 7.2 0 Calma 4 Sudeste 0 899.2 0 83
2020-03-23 01:00:00 7.3 2 Noroeste 10 Sudeste 0 899.3 0.3 77
2020-03-23 00:00:00 7.6 6 Sudeste 13 Sudeste 0 899.5 1 74
2020-03-22 23:00:00 8.5 0 Calma 4 Este 0 899.2 1.3 68
2020-03-22 22:00:00 8.8 0 Calma -- -- 0 899 1.9 65
2020-03-22 21:00:00 9.3 0 Calma 14 Este 0 898.5 1.9 62
2020-03-22 20:00:00 9.5 3 Este 9 Este 0 897.9 1.4 64
2020-03-22 19:00:00 10.3 2 Oeste 10 Sudoeste 0 897.1 0.4 66
2020-03-22 18:00:00 11.1 5 Sur 13 Sudoeste 0 896.6 -0.5 64
2020-03-22 17:00:00 10.8 5 Sur 13 Sudoeste 0 896.5 -0.8 67
2020-03-22 16:00:00 9.2 5 Sur 10 Sur 0 896.7 -0.7 72
2020-03-22 15:00:00 8.7 3 Sudoeste 10 Sudoeste 0.1 897.1 -0.6 74
2020-03-22 14:00:00 8.7 5 Sur 12 Sur 0 897.3 -0.6 75
2020-03-22 13:00:00 8.9 7 Sur 15 Sur 0 897.4 -0.3 76
2020-03-22 12:00:00 7.2 5 Sudoeste 13 Oeste 0 897.7 0.6 83
2020-03-22 11:00:00 6.5 2 Sudoeste 7 Sudoeste 0.3 897.9 1 89
2020-03-22 10:00:00 5.9 4 Oeste 7 Oeste 0.8 897.7 1.1 91
2020-03-22 09:00:00 5.5 0 Calma 4 Oeste 0.5 897.1 0.5 93
2020-03-22 08:00:00 5.3 0 Calma 5 Sudoeste 0.1 896.9 0.7 93
2020-03-22 07:00:00 5.2 0 Calma 2 Oeste 0 896.6 0 93
2020-03-22 06:00:00 5.2 0 Calma 4 Noroeste 0 896.6 0 92
2020-03-22 05:00:00 4.9 3 Noroeste 8 Noroeste 0.1 896.2 -0.8 92
2020-03-22 04:00:00 5.1 0 Calma -- -- 0.1 896.6 -0.9 92
2020-03-22 03:00:00 5.1 0 Calma -- -- 0.2 896.6 -0.8 92
2020-03-22 02:00:00 5.2 0 Calma -- -- 0.2 897 -0.5 92
2020-03-22 01:00:00 5.3 0 Calma -- -- 0.3 897.5 0 91
2020-03-22 00:00:00 5.3 0 Calma 0 Calma 0.2 897.4 0 91
2020-03-21 23:00:00 5.4 0 Calma 5 Norte 0.3 897.5 0.8 91
2020-03-21 22:00:00 5.4 0 Calma 5 Sudeste 0.8 897.5 1.1 90
2020-03-21 21:00:00 5.4 0 Calma 9 Este 0.6 897.4 1.5 90
2020-03-21 20:00:00 5.7 3 Este 10 Este 0 896.7 0.9 90
2020-03-21 19:00:00 6 5 Este 13 Este 0.1 896.4 0.2 91
2020-03-21 18:00:00 6.7 5 Sudeste 19 Sudeste 0.4 895.9 -0.6 91
2020-03-21 17:00:00 7.6 5 Sudeste 13 Sudeste 0 895.8 -1.4 90
2020-03-21 16:00:00 7.4 4 Sudeste 12 Sudeste 0 896.2 -1.4 90
2020-03-21 15:00:00 7.4 6 Sudeste 12 Sudeste 0 896.5 -1.6 89
2020-03-21 14:00:00 7.3 2 Sudeste 6 Sudeste 0.1 897.2 -0.9 89
2020-03-21 13:00:00 7.1 3 Sudeste 8 Sudeste 0 897.6 -0.4 87
2020-03-21 12:00:00 7.3 4 Sudeste 12 Sudeste 0 898.1 0.2 85
2020-03-21 11:00:00 7.2 5 Sudeste 9 Sudeste 0 898.1 0.6 86
2020-03-21 10:00:00 7 0 Calma 4 Sudeste 0 898 -0.1 91
2020-03-21 09:00:00 6.6 0 Calma 4 Este 0 897.9 -0.3 92
2020-03-21 08:00:00 6.3 2 Noroeste 5 Noroeste 0 897.5 -1.2 92
2020-03-21 07:00:00 6.4 0 Calma -- -- 0 898.1 -1 92
2020-03-21 06:00:00 6.4 0 Calma -- -- 0 898.2 -1.3 92
2020-03-21 05:00:00 6.4 0 Calma 5 Sudeste 0.5 898.7 -1.2 92
2020-03-21 04:00:00 6.5 3 Sudeste 8 Sudeste 0 899.1 -1 91
2020-03-21 03:00:00 6.4 0 Calma 4 Sudoeste 0 899.5 -0.4 91
2020-03-21 02:00:00 6.2 0 Calma -- -- 0 899.9 -0.4 92
2020-03-21 01:00:00 5.5 0 Calma 0 Calma 0 900.1 -0.4 92
2020-03-21 00:00:00 5.1 0 Calma 3 Oeste 0 899.9 -1 91
2020-03-20 23:00:00 5.2 0 Calma 5 Oeste 0 900.3 -0.5 89
2020-03-20 22:00:00 6.6 4 Noroeste 5 Noroeste 0 900.5 -0.3 85
2020-03-20 21:00:00 8.2 0 Calma 4 Sudeste 0 900.9 0.1 82
2020-03-20 20:00:00 8.4 3 Sudeste 6 Sudeste 0 900.8 -0.1 81
2020-03-20 19:00:00 8.6 0 Calma 8 Sudeste 0 900.8 -0.4 77
2020-03-20 18:00:00 8.7 6 Sudeste 11 Este 0 900.8 -0.4 76
2020-03-20 17:00:00 9.2 4 Sudeste 12 Sudeste 0 900.9 -0.7 73
2020-03-20 16:00:00 9.2 7 Sudeste 14 Sur 0 901.2 -0.5 73
2020-03-20 15:00:00 9.3 5 Sur 15 Sudeste 0 901.2 -1.1 73
2020-03-20 14:00:00 9 5 Sudeste 15 Sudeste 0 901.6 -0.7 74
2020-03-20 13:00:00 8.4 6 Sudeste 16 Sudeste 0 901.7 -0.7 77
2020-03-20 12:00:00 7.7 3 Sur 10 Sudeste 0 902.3 0.1 82
2020-03-20 11:00:00 7.3 6 Sudeste 14 Sudeste 0 902.3 0.7 83
2020-03-20 10:00:00 7.3 8 Sudeste 16 Sudeste 0 902.4 1 87
2020-03-20 09:00:00 7.1 4 Sudeste 8 Este 0 902.2 0.9 91
2020-03-20 08:00:00 7 4 Sudeste 12 Sur 0 901.6 0.4 89
2020-03-20 07:00:00 7.2 7 Sudeste 13 Sudeste 0 901.4 -0.4 85
2020-03-20 06:00:00 7.3 5 Sudeste 13 Sudeste 0 901.3 -1 85
2020-03-20 05:00:00 7.6 5 Sudeste 14 Sudeste 0 901.2 -1.3 84
2020-03-20 04:00:00 8.1 5 Sudeste 9 Sudeste 0 901.8 -1.1 82
2020-03-20 03:00:00 8.3 5 Sudeste 9 Sudeste 0 902.3 -1 79
2020-03-20 02:00:00 8.5 3 Sudeste 10 Sudeste 0 902.5 -1 77
2020-03-20 01:00:00 8.6 4 Sudeste 15 Sudeste 0 902.9 -0.3 76
2020-03-20 00:00:00 8.9 3 Sudeste 9 Sudeste 0 903.3 0.4 76
2020-03-19 23:00:00 8.8 5 Sudeste 15 Sudeste 0 903.5 0.8 77
2020-03-19 22:00:00 7.9 4 Este 10 Este 0 903.2 0.4 77
2020-03-19 21:00:00 7.4 2 Noroeste 5 Noroeste 0 902.9 0.3 77
2020-03-19 20:00:00 9.4 2 Noroeste 5 Sur 0 902.7 -0.1 65
2020-03-19 19:00:00 12.5 5 Sudeste 13 Sur 0 902.8 -0.6 51
2020-03-19 18:00:00 13.6 7 Sudeste 16 Sudeste 0 902.6 -1.5 46
2020-03-19 17:00:00 14.3 6 Sudeste 16 Sudeste 0 902.8 -2 41
2020-03-19 16:00:00 14.7 5 Sur 17 Sudeste 0 903.4 -2.1 39
2020-03-19 15:00:00 13.7 8 Sudeste 17 Sudeste 0 904.1 -2 42
2020-03-19 14:00:00 13.2 9 Sudeste 19 Este 0 904.8 -1.5 51
2020-03-19 13:00:00 13 8 Este 18 Este 0 905.5 -1 54
2020-03-19 12:00:00 11.5 5 Sudeste 17 Este 0 906.1 -0.4 71
2020-03-19 11:00:00 10.7 4 Este 10 Este 0 906.3 0.1 75
2020-03-19 10:00:00 9 0 Calma 6 Sur 0 906.5 0.2 88
2020-03-19 09:00:00 5.9 0 Calma 4 Oeste 0 906.5 0.3 93
2020-03-19 08:00:00 4.2 0 Calma 3 Este 0 906.2 0 93
2020-03-19 07:00:00 4.7 4 Noroeste 7 Noroeste 0 906.3 -0.2 93
2020-03-19 06:00:00 4.7 0 Calma 5 Noroeste 0 906.2 -1.1 91
2020-03-19 05:00:00 5.7 4 Noroeste 11 Oeste 0 906.2 -1.6 91
2020-03-19 04:00:00 5.4 0 Calma 4 Sudeste 0 906.5 -1.7 90
2020-03-19 03:00:00 6.1 0 Calma 6 Noroeste 0 907.3 -1 89
2020-03-19 02:00:00 6 0 Calma 7 Oeste 0 907.8 -0.9 86
2020-03-19 01:00:00 6.9 5 Noroeste 7 Oeste 0 908.2 -0.6 86
2020-03-19 00:00:00 7.1 2 Noroeste 7 Oeste 0 908.3 0 85
2020-03-18 23:00:00 7.8 0 Calma 8 Oeste 0 908.7 0.5 82
2020-03-18 22:00:00 8.6 4 Oeste 7 Noroeste 0 908.8 0.7 80
2020-03-18 21:00:00 9.4 3 Noroeste 5 Noroeste 0 908.3 0.2 77
2020-03-18 20:00:00 11.1 3 Noroeste 4 Noroeste 0 908.2 0.1 71
2020-03-18 19:00:00 13.9 0 Calma 5 Sur 0 908.1 -0.2 57
2020-03-18 18:00:00 14.8 3 Sudeste 11 Sudeste 0 908.1 -0.6 51
2020-03-18 17:00:00 16.8 7 Sur 13 Sur 0 908.1 -1.3 48
2020-03-18 16:00:00 16.9 4 Sudeste 15 Sudeste 0 908.3 -1.5 47
2020-03-18 15:00:00 17 5 Sur 16 Sudeste 0 908.7 -1.7 46
2020-03-18 14:00:00 16.8 2 Sur 10 Sur 0 909.4 -1.3 43
2020-03-18 13:00:00 15.7 3 Sur 9 Sudeste 0 909.8 -0.9 52
2020-03-18 12:00:00 13.8 2 Sudeste 8 Sur 0 910.4 -0.3 56
2020-03-18 11:00:00 12.3 0 Calma 6 Oeste 0 910.7 -0.2 72
2020-03-18 10:00:00 8.1 4 Oeste 7 Oeste 0 910.7 0 85
2020-03-18 09:00:00 6.4 4 Oeste 9 Oeste 0 910.7 0.1 91
2020-03-18 08:00:00 5.3 0 Calma 7 Oeste 0 910.9 0.6 92
2020-03-18 07:00:00 5.3 0 Calma 7 Noroeste 0 910.7 0.3 92
2020-03-18 06:00:00 5.1 0 Calma 5 Sudoeste 0 910.6 -0.1 90
2020-03-18 05:00:00 5.6 4 Noroeste 7 Sudoeste 0 910.3 -0.7 90
2020-03-18 04:00:00 6.1 4 Oeste 9 Oeste 0 910.4 -0.9 90
2020-03-18 03:00:00 6.2 3 Oeste 6 Oeste 0 910.7 -1 88
2020-03-18 02:00:00 6.9 3 Norte 8 Nordeste 0 911 -0.7 85
2020-03-18 01:00:00 8.1 3 Noroeste 10 Noroeste 0 911.3 -0.1 80
2020-03-18 00:00:00 9.8 5 Oeste 10 Oeste 0 911.7 0.6 76
2020-03-17 23:00:00 10.3 5 Oeste 11 Oeste 0 911.7 1.4 76
2020-03-17 22:00:00 10.7 0 Calma 10 Oeste 0 911.4 1.7 74
2020-03-17 21:00:00 10.4 2 Noroeste 9 Noroeste 0 911.1 1.9 75
2020-03-17 20:00:00 10.9 5 Oeste 13 Noroeste 0 910.3 1.2 70
2020-03-17 19:00:00 11.5 2 Noroeste 12 Sudeste 0 909.7 0.8 66
2020-03-17 18:00:00 11.9 6 Sudeste 26 Este 0 909.2 0.4 62
2020-03-17 17:00:00 12.4 13 Sudeste 31 Sudeste 0 909.1 0.5 64
2020-03-17 16:00:00 12.5 14 Sudeste 32 Sudeste 0 908.9 0.2 63
2020-03-17 15:00:00 12.5 15 Este 35 Este 0 908.8 0.4 60
2020-03-17 14:00:00 12.5 13 Este 31 Este 0 908.6 0.2 62
2020-03-17 13:00:00 12.3 14 Sudeste 27 Sudeste 0 908.7 1 63
2020-03-17 12:00:00 11.7 9 Este 22 Sudeste 0 908.4 0.9 71
2020-03-17 11:00:00 8.9 4 Oeste 12 Nordeste 0 908.4 1.4 85
2020-03-17 10:00:00 7.9 4 Oeste 15 Norte 0 907.7 1.4 89
2020-03-17 09:00:00 6.6 5 Norte 12 Oeste 0.2 907.5 2 93
2020-03-17 08:00:00 4.5 7 Oeste 15 Oeste 0 907 2.1 94
2020-03-17 07:00:00 3.1 3 Oeste 11 Oeste 0.1 906.3 1.7 95
2020-03-17 06:00:00 2.3 5 Oeste 13 Oeste 0.3 905.5 0.7 95
2020-03-17 05:00:00 2.1 0 Calma 11 Sudoeste 0.6 904.9 0.4 95
2020-03-17 04:00:00 1.7 2 Oeste 10 Sudoeste 1 904.6 0.4 94
2020-03-17 03:00:00 1.4 5 Oeste 12 Oeste 1.1 904.8 1.3 93
2020-03-17 02:00:00 1.9 5 Oeste 20 Sur 1.3 904.5 2.1 93
2020-03-17 01:00:00 3.2 7 Sudeste 20 Sur 1.6 904.2 2.5 93
2020-03-17 00:00:00 3.6 8 Sudeste 18 Sudeste 2.4 903.5 2.2 93
2020-03-16 23:00:00 4.5 5 Sudoeste 13 Oeste 2.6 902.4 1.9 93
2020-03-16 22:00:00 3.7 6 Oeste 12 Oeste 0.1 901.7 2.1 92
2020-03-16 21:00:00 3.3 6 Sur 11 Oeste 0.6 901.3 2.2 92
2020-03-16 20:00:00 3 0 Calma 10 Sudoeste 0.4 900.5 1.2 91
2020-03-16 19:00:00 3.2 4 Oeste 13 Noroeste 1.3 899.6 1.2 88
2020-03-16 18:00:00 4.4 3 Sur 22 Nordeste 0.6 899.1 1.5 84
2020-03-16 17:00:00 4.2 4 Este 20 Nordeste 0.5 899.3 1.9 83
2020-03-16 16:00:00 4.3 10 Nordeste 28 Nordeste 0.1 898.4 1.4 77
2020-03-16 15:00:00 6.1 14 Nordeste 35 Nordeste 0 897.6 0.5 67
2020-03-16 14:00:00 6.1 16 Nordeste 41 Nordeste 0 897.4 0.5 72
2020-03-16 13:00:00 5.5 14 Este 38 Nordeste 0.2 897 0.7 77
2020-03-16 12:00:00 4.2 4 Sudeste 15 Oeste 0 897.1 1.8 90
2020-03-16 11:00:00 2.9 2 Sudoeste 8 Sudoeste 0.9 896.9 2.1 92
2020-03-16 10:00:00 2.1 3 Sur 8 Sudoeste 1 896.3 2.4 91
2020-03-16 09:00:00 2.2 3 Este 20 Noroeste 1.5 895.3 1.2 86
2020-03-16 08:00:00 2.9 6 Norte 28 Norte 0.2 894.8 0.7 81
2020-03-16 07:00:00 3.7 12 Norte 24 Norte 0 893.9 -0.4 80
2020-03-16 06:00:00 3.8 4 Sudeste 12 Noroeste 0 894.1 -0.3 84
2020-03-16 05:00:00 3.6 5 Norte 18 Norte 0.2 894.1 -0.5 84
2020-03-16 04:00:00 3.5 6 Noroeste 27 Oeste 1.4 894.3 -0.7 83
2020-03-16 03:00:00 5.4 4 Norte 14 Noroeste 0.6 894.4 -1.1 87
2020-03-16 02:00:00 6.6 3 Nordeste 13 Sur 0.6 894.6 -1.5 85
2020-03-16 01:00:00 7.5 2 Sur 10 Noroeste 0.4 895 -1.5 85
2020-03-16 00:00:00 8.6 4 Norte 9 Este 0.2 895.5 -0.8 92
2020-03-15 23:00:00 8.4 4 Este 11 Sudeste 0.1 896.1 -0.7 92
2020-03-15 22:00:00 8 3 Sudoeste 12 Oeste 0 896.5 0.7 92
2020-03-15 21:00:00 8.6 4 Oeste 17 Norte 0.1 896.3 0.6 88
2020-03-15 20:00:00 9.6 3 Sudoeste 42 Sudoeste 1.6 896.8 0.7 76
2020-03-15 19:00:00 13.6 4 Oeste 32 Sur 0 895.8 -1.1 52
2020-03-15 18:00:00 15.6 19 Sur 38 Sur 0 895.7 -1.6 54
2020-03-15 17:00:00 16.8 18 Sur 37 Sur 0 896.1 -2.9 52
2020-03-15 16:00:00 17 17 Sur 32 Sudeste 0 896.9 -3.2 50
2020-03-15 15:00:00 17 15 Sudeste 28 Sudeste 0 897.3 -3.7 51
2020-03-15 14:00:00 16.9 15 Sudeste 29 Sudeste 0 899 -2.6 56
2020-03-15 13:00:00 15.4 9 Sudeste 20 Sudeste 0 900.1 -1.8 60
2020-03-15 12:00:00 14.2 10 Este 18 Sudeste 0 901 -0.9 60
2020-03-15 11:00:00 13.6 3 Este 9 Sudeste 0 901.6 -0.5 58
2020-03-15 10:00:00 11 0 Calma 5 Este 0 901.9 0 63
2020-03-15 09:00:00 7.1 0 Calma 5 Noroeste 0 901.9 -0.3 80
2020-03-15 08:00:00 2.6 0 Calma 6 Oeste 0 902.1 -0.2 91
2020-03-15 07:00:00 2.2 4 Oeste 7 Oeste 0 901.9 -0.8 92
2020-03-15 06:00:00 2.4 2 Noroeste 7 Noroeste 0 902.2 -0.9 91
2020-03-15 05:00:00 2.5 0 Calma 4 Noroeste 0 902.3 -1.1 90
2020-03-15 04:00:00 3.8 0 Calma 6 Noroeste 0 902.7 -1 88
2020-03-15 03:00:00 4.9 5 Noroeste 8 Oeste 0 903.1 -1 86
2020-03-15 02:00:00 5 6 Oeste 8 Noroeste 0 903.4 -0.9 85
2020-03-15 01:00:00 5.4 0 Calma 6 Noroeste 0 903.7 -0.3 77
2020-03-15 00:00:00 6.3 2 Oeste 4 Nordeste 0 904.1 0 75
2020-03-14 23:00:00 7.2 0 Calma 7 Noroeste 0 904.3 0.5 67
2020-03-14 22:00:00 8.7 3 Oeste -- -- 0 904 0.5 61
2020-03-14 21:00:00 9.8 0 Calma -- -- -- 904.1 0.8 55
2020-03-14 20:00:00 13.2 3 Oeste 11 Noroeste 0 903.8 0.6 41
2020-03-14 19:00:00 16.5 6 Noroeste 14 Noroeste 0 903.5 -0.1 36
2020-03-14 18:00:00 18.3 10 Noroeste 27 Noroeste 0 903.3 -0.8 34
2020-03-14 17:00:00 18.7 4 Nordeste 15 Nordeste 0 903.2 -1.4 33
2020-03-14 16:00:00 19.4 6 Norte 12 Sudeste 0 903.6 -1.5 32
2020-03-14 15:00:00 19.6 2 Sudeste 13 Sur 0 904.1 -1.4 35
2020-03-14 14:00:00 18.7 5 Este 20 Sudeste 0 904.6 -1.3 38
2020-03-14 13:00:00 18 7 Sudeste 19 Sudeste 0 905.1 -0.7 38
2020-03-14 12:00:00 17.2 4 Este 10 Este 0 905.5 0.2 37
2020-03-14 11:00:00 15.6 3 Sudeste 10 Nordeste 0 905.9 0.7 53
2020-03-14 10:00:00 12.5 3 Sudeste 6 Sudeste 0 905.8 1.1 64
2020-03-14 09:00:00 9.2 0 Calma 4 Sur 0 905.3 1 77
2020-03-14 08:00:00 5.1 0 Calma 9 Oeste 0 905.2 1.1 93
2020-03-14 07:00:00 4.6 0 Calma 8 Oeste 0 904.7 0.6 93
2020-03-14 06:00:00 4.8 0 Calma 8 Oeste 0 904.3 0.2 91
2020-03-14 05:00:00 6.7 0 Calma 12 Oeste 0 904.1 -0.3 92
2020-03-14 04:00:00 6.3 3 Oeste 8 Nordeste 0 904.1 -0.4 90
2020-03-14 03:00:00 7.2 2 Noroeste 8 Norte 0 904.1 -0.1 86
2020-03-14 02:00:00 9.9 2 Noroeste 16 Noroeste 0 904.4 0.3 77
2020-03-14 01:00:00 12 6 Noroeste 23 Oeste 0 904.5 0.6 74
2020-03-14 00:00:00 9.2 2 Oeste 6 Oeste 0 904.2 0.8 84
2020-03-13 23:00:00 10 0 Calma 8 Noroeste 0 904.1 1 81
2020-03-13 22:00:00 12.1 0 Calma 8 Noroeste 0 903.9 1.2 77
2020-03-13 21:00:00 12.3 0 Calma 6 Noroeste 0 903.4 1.5 70
2020-03-13 20:00:00 14.3 2 Noroeste 15 Noroeste 0 903.1 1.1 63
2020-03-13 19:00:00 16.2 0 Calma 16 Norte 0 902.7 0.8 57
2020-03-13 18:00:00 18 5 Norte 19 Noroeste 0 901.9 -0.2 52
2020-03-13 17:00:00 18 9 Norte 22 Norte 0 902 -0.9 50
2020-03-13 16:00:00 20 10 Sudeste 19 Este 0 901.9 -1.4 43
2020-03-13 15:00:00 19.8 8 Este 19 Sudeste 0 902.1 -1.6 46
2020-03-13 14:00:00 19.4 6 Sudeste 19 Sudeste 0 902.9 -0.5 50
2020-03-13 13:00:00 18.6 10 Sudeste 18 Sudeste 0 903.3 -0.4 51
2020-03-13 12:00:00 17.6 5 Sudeste 15 Sudeste 0 903.7 0.4 53
2020-03-13 11:00:00 16.8 10 Sudeste 17 Sudeste 0 903.4 0.2 58
2020-03-13 10:00:00 14.5 3 Sur 8 Sudeste 0 903.7 1 65
2020-03-13 09:00:00 11.2 3 Sudeste 7 Oeste 0 903.3 0.7 77
2020-03-13 08:00:00 7.4 4 Noroeste 6 Oeste 0 903.2 0.6 86
2020-03-13 07:00:00 7.7 0 Calma 6 Oeste 0 902.7 0 85
2020-03-13 06:00:00 8.1 3 Noroeste 6 Oeste 0 902.6 -0.5 84
2020-03-13 05:00:00 8.3 0 Calma 9 Noroeste 0 902.6 -0.5 77
2020-03-13 04:00:00 9.4 4 Noroeste 9 Oeste 0 902.7 -1.1 77
2020-03-13 03:00:00 11.2 3 Oeste 12 Oeste 0 903.1 -0.9 73
2020-03-13 02:00:00 9.9 0 Calma 7 Oeste 0 903.1 -0.7 77
2020-03-13 01:00:00 10.3 4 Oeste 7 Oeste 0 903.8 -0.3 76
2020-03-13 00:00:00 12.1 4 Oeste 9 Noroeste 0 904 0.1 69
2020-03-12 23:00:00 12.7 2 Este 8 Este 0 903.8 0.1 68
2020-03-12 22:00:00 13.6 6 Noroeste 16 Sudoeste 0 904.1 0.7 64
2020-03-12 21:00:00 13.7 0 Calma 5 Nordeste 0 903.9 0.6 62
2020-03-12 20:00:00 14.4 0 Calma 9 Sudeste 0 903.7 0.2 55
2020-03-12 19:00:00 18.4 3 Norte 12 Sudeste 0 903.4 -0.3 42
2020-03-12 18:00:00 20.2 5 Sudeste 20 Sudeste 0 903.3 -1 39
2020-03-12 17:00:00 20.7 12 Sudeste 22 Sudeste 0 903.5 -1.9 39
2020-03-12 16:00:00 21.6 11 Sudeste 27 Sudeste 0 903.7 -2.5 36
2020-03-12 15:00:00 22.8 15 Sudeste 33 Sudeste 0 904.3 -2.4 32
2020-03-12 14:00:00 21.9 13 Sudeste 26 Sudeste 0 905.4 -1.5 36
2020-03-12 13:00:00 22.3 9 Sur 19 Sur 0 906.2 -0.9 39
2020-03-12 12:00:00 19.7 3 Nordeste 10 Este 0 906.7 -0.3 46
2020-03-12 11:00:00 17.2 2 Sudeste 8 Oeste 0 906.9 0 51
2020-03-12 10:00:00 14.1 3 Sudoeste 9 Oeste 0 907.1 0.3 60
2020-03-12 09:00:00 10.9 2 Este 9 Noroeste 0 907 0.1 79
2020-03-12 08:00:00 6.7 5 Noroeste 8 Oeste 0 906.9 0 91
2020-03-12 07:00:00 6 4 Noroeste 8 Oeste 0 906.8 -0.6 91
2020-03-12 06:00:00 5.7 3 Noroeste 9 Oeste 0 906.9 -1.2 90
2020-03-12 05:00:00 6.8 5 Oeste 9 Noroeste 0 906.9 -1.3 91
2020-03-12 04:00:00 5.8 2 Oeste 5 Oeste 0 907.4 -0.9 91
2020-03-12 03:00:00 6.5 2 Noroeste 4 Noroeste 0 908.1 -0.6 90
2020-03-12 02:00:00 7.8 0 Calma 7 Noroeste 0 908.2 -0.6 87
2020-03-12 01:00:00 8.8 2 Oeste 8 Oeste 0 908.3 -0.5 84
2020-03-12 00:00:00 9.2 0 Calma 4 Noroeste 0 908.7 0.3 84
2020-03-11 23:00:00 10.4 0 Calma 6 Noroeste 0 908.8 0.5 80
2020-03-11 22:00:00 11.6 3 Noroeste 6 Noroeste 0 908.8 0.6 75
2020-03-11 21:00:00 13.6 0 Calma 7 Norte 0 908.4 0.4 64
2020-03-11 20:00:00 16.8 4 Norte 7 Norte 0 908.3 0.5 56
2020-03-11 19:00:00 19.1 3 Nordeste 11 Este 0 908.2 0.3 47
2020-03-11 18:00:00 20.8 5 Este 15 Sudeste 0 908 -0.3 43
2020-03-11 17:00:00 21.7 8 Sudeste 21 Sudeste 0 907.8 -1.3 40
2020-03-11 16:00:00 22.8 8 Sudeste 19 Sudeste 0 907.9 -1.9 37
2020-03-11 15:00:00 23.1 11 Sudeste 20 Sudeste 0 908.3 -2 39
2020-03-11 14:00:00 21.7 7 Este 15 Este 0 909.1 -1.4 37
2020-03-11 13:00:00 21.1 4 Este 13 Sudeste 0 909.8 -0.4 41
2020-03-11 12:00:00 19.7 6 Sudeste 13 Sudeste 0 910.3 0.6 43
2020-03-11 11:00:00 17.7 5 Este 9 Sudeste 0 910.5 0.6 54
2020-03-11 10:00:00 14.4 3 Sudoeste 7 Oeste 0 910.2 0.5 63
2020-03-11 09:00:00 9.7 2 Oeste 7 Oeste 0 909.7 0.1 80
2020-03-11 08:00:00 5.8 5 Noroeste 10 Oeste 0 909.9 0.5 90
2020-03-11 07:00:00 5.9 3 Oeste 9 Oeste 0 909.7 -0.1 89
2020-03-11 06:00:00 6.8 4 Noroeste 10 Noroeste 0 909.6 -0.7 87
2020-03-11 05:00:00 7.2 2 Oeste 12 Oeste 0 909.4 -1.2 85
2020-03-11 04:00:00 6.7 6 Oeste 14 Oeste 0 909.8 -0.9 86
2020-03-11 03:00:00 7 4 Noroeste 9 Sudoeste 0 910.3 -0.7 84
2020-03-11 02:00:00 9.1 3 Noroeste 13 Noroeste 0 910.6 -0.4 77
2020-03-11 01:00:00 8.2 4 Sur 15 Oeste 0 910.7 -0.2 81
2020-03-11 00:00:00 8.7 5 Noroeste 14 Oeste 0 911 0.3 77
2020-03-10 23:00:00 9.1 2 Noroeste 5 Noroeste 0 911 -- 76
2020-03-10 22:00:00 9.5 3 Noroeste 10 Sudoeste 0 910.9 0.7 71
2020-03-10 21:00:00 12.3 0 Calma 14 Nordeste 0 910.7 0.6 61
2020-03-10 20:00:00 -- 0 Calma 7 Nordeste 0 -- -- --
2020-03-10 19:00:00 18.5 0 Calma 7 Sudeste 0 910.2 -0.2 45
2020-03-10 18:00:00 19.9 2 Este 8 Nordeste 0 910.1 -0.7 39
2020-03-10 17:00:00 19.4 5 Este 14 Sudeste 0 910.1 -0.9 40
2020-03-10 16:00:00 19.7 6 Este 17 Este 0 910.4 -0.9 40
2020-03-10 15:00:00 19.1 6 Este 17 Este 0 910.8 -0.6 42
2020-03-10 14:00:00 18.6 8 Este 18 Este 0 911 -0.4 42
2020-03-10 13:00:00 18.9 7 Sudeste 17 Sudeste 0 911.3 -0.1 43
2020-03-10 12:00:00 18.6 2 Este 9 Este 0 911.4 0.4 40
2020-03-10 11:00:00 16.9 5 Nordeste 9 Nordeste 0 911.4 0.8 45
2020-03-10 10:00:00 12.5 0 Calma 8 Norte 0 911.4 0.9 58
2020-03-10 09:00:00 8.7 0 Calma 7 Oeste 0 911 0.7 67
2020-03-10 08:00:00 7.7 2 Oeste 13 Este 0 910.6 0.3 64
2020-03-10 07:00:00 6.3 4 Noroeste 11 Oeste 0 910.5 0.3 67
2020-03-10 06:00:00 6.5 4 Sur 18 Norte 0 910.3 -0.2 60
2020-03-10 05:00:00 9.3 9 Norte 19 Norte 0 910.3 -0.1 55
2020-03-10 04:00:00 8.7 7 Nordeste 21 Nordeste 0 910.2 -0.6 56
2020-03-10 03:00:00 6.9 0 Calma 20 Noroeste 0 910.5 -0.1 56
2020-03-10 02:00:00 9.6 5 Noroeste 28 Noroeste 0 910.4 -0.4 49
2020-03-10 01:00:00 9.7 7 Noroeste 28 Noroeste 0 910.8 0.3 46
2020-03-10 00:00:00 10 11 Noroeste 29 Noroeste 0 910.6 0.3 46
2020-03-09 23:00:00 10.4 14 Noroeste 39 Noroeste 0 910.8 0.6 45
2020-03-09 22:00:00 9.2 6 Noroeste 22 Oeste 0 910.5 0.7 48
2020-03-09 21:00:00 9 5 Noroeste 22 Norte 0 910.3 0.7 51
2020-03-09 20:00:00 9.8 3 Norte 30 Noroeste 0 910.2 0.9 50
2020-03-09 19:00:00 10.7 5 Noroeste 26 Norte 0 909.8 0.4 49
2020-03-09 18:00:00 11.9 11 Noroeste 29 Oeste 0 909.6 -0.7 47
2020-03-09 17:00:00 11.8 12 Oeste 28 Noroeste 0 909.3 -1.1 51
2020-03-09 16:00:00 12.2 6 Noroeste 31 Noroeste 0 909.4 -1.9 52
2020-03-09 15:00:00 11.3 11 Noroeste 26 Oeste 0 910.3 -1.1 54
2020-03-09 14:00:00 10.4 14 Noroeste 37 Noroeste 0 910.4 -0.6 57
2020-03-09 13:00:00 9.5 19 Noroeste 35 Oeste 0 911.3 0.8 60
2020-03-09 12:00:00 8.9 12 Noroeste 27 Norte 0 911.4 1.1 61
2020-03-09 11:00:00 7.9 14 Noroeste 38 Noroeste 0 911 1.4 65
2020-03-09 10:00:00 6.7 19 Noroeste 36 Noroeste 0 910.5 1.5 69
2020-03-09 09:00:00 5.8 16 Noroeste 37 Noroeste 0 910.3 1.5 71
2020-03-09 08:00:00 6 6 Oeste 24 Sudoeste 0 909.6 0.9 68
2020-03-09 07:00:00 6.2 10 Noroeste 41 Oeste 0 909 0.1 69
2020-03-09 06:00:00 6.4 12 Oeste 32 Oeste 0 908.8 -0.3 72
2020-03-09 05:00:00 6.5 12 Oeste 37 Noroeste 0 908.7 -1 75
2020-03-09 04:00:00 7.2 13 Oeste 36 Oeste 0 908.9 -0.5 73
2020-03-09 03:00:00 7.9 12 Oeste 35 Noroeste 0 909.1 -0.4 73
2020-03-09 02:00:00 8.4 12 Oeste 30 Oeste 0 909.7 0.3 77
2020-03-09 01:00:00 8.7 10 Sudoeste 35 Oeste 0 909.4 -0.1 76
2020-03-09 00:00:00 9.2 10 Oeste 26 Oeste 0 909.5 0.6 73
2020-03-08 23:00:00 9.5 12 Oeste 26 Oeste 0 909.4 0.4 69
2020-03-08 22:00:00 9.6 7 Oeste 17 Noroeste 0 909.5 1.2 67
2020-03-08 21:00:00 9.5 7 Oeste 22 Oeste 0 908.9 0.9 66
2020-03-08 20:00:00 10.2 6 Oeste 22 Oeste 0 909 1.4 68
2020-03-08 19:00:00 11.5 11 Sudoeste 24 Oeste 0 908.3 0.6 58
2020-03-08 18:00:00 12.6 5 Oeste 17 Oeste 0 908 0.3 51
2020-03-08 17:00:00 12.7 11 Oeste 38 Noroeste 0 907.6 -0.7 45
2020-03-08 16:00:00 13.3 3 Este 18 Este 0 907.7 -1.1 45
2020-03-08 15:00:00 15.1 3 Norte 20 Noroeste 0 907.7 -1.6 32
2020-03-08 14:00:00 15.9 5 Oeste 16 Noroeste 0 908.3 -1.2 30
2020-03-08 13:00:00 13.6 3 Noroeste 21 Oeste 0 908.8 -0.5 29
2020-03-08 12:00:00 13.5 5 Sudeste 14 Este 0 909.3 0 32
2020-03-08 11:00:00 11.9 3 Este 13 Este 0 909.5 0.5 45
2020-03-08 10:00:00 6.5 3 Sur 11 Oeste 0 909.3 0.2 66
2020-03-08 09:00:00 1.8 0 Calma 6 Nordeste 0 909.3 0.4 76
2020-03-08 08:00:00 -1.5 0 Calma 15 Oeste 0 909 0.2 85
2020-03-08 07:00:00 -2.7 4 Noroeste 9 Oeste 0 909.1 0.1 89
2020-03-08 06:00:00 -2.5 3 Noroeste 5 Noroeste 0 908.9 -0.5 87
2020-03-08 05:00:00 -0.9 3 Noroeste 12 Oeste 0 908.8 -0.8 86
2020-03-08 04:00:00 -1.5 3 Noroeste 9 Noroeste 0 909 -0.8 86
2020-03-08 03:00:00 0 6 Oeste 16 Oeste 0 909.4 -0.8 85
2020-03-08 02:00:00 0.2 4 Oeste 9 Oeste 0 909.6 -0.8 85
2020-03-08 01:00:00 1 2 Sudoeste 14 Oeste 0 909.8 -0.4 82
2020-03-08 00:00:00 2.1 7 Oeste 12 Oeste 0 910.2 0.3 83
2020-03-07 23:00:00 3 0 Calma 9 Oeste 0 910.4 0.8 77
2020-03-07 22:00:00 4.3 5 Oeste 9 Oeste 0 910.2 0.9 77
2020-03-07 21:00:00 6.8 0 Calma 18 Noroeste 0 909.9 1 64
2020-03-07 20:00:00 8.5 8 Norte 29 Noroeste 0 909.6 0.8 59
2020-03-07 19:00:00 9.5 8 Norte 31 Noroeste 0 909.3 0.4 56
2020-03-07 18:00:00 11 14 Noroeste 27 Noroeste 0 908.9 -0.1 52
2020-03-07 17:00:00 11.3 11 Noroeste 27 Noroeste 0 908.8 -0.6 51
2020-03-07 16:00:00 11.6 12 Noroeste 31 Noroeste 0 908.9 -1.3 50
2020-03-07 15:00:00 9.8 17 Noroeste 33 Noroeste 0 909 -1.3 56
2020-03-07 14:00:00 9.3 17 Noroeste 40 Noroeste 0 909.4 -0.8 60
2020-03-07 13:00:00 7.7 20 Noroeste 40 Noroeste 0 910.2 0.2 65
2020-03-07 12:00:00 7.1 18 Noroeste 37 Noroeste 0 910.3 0.8 66
2020-03-07 11:00:00 7.3 13 Noroeste 36 Noroeste 0 910.2 1 67
2020-03-07 10:00:00 6.1 21 Noroeste 35 Noroeste 0 910 1.3 69
2020-03-07 09:00:00 5.4 10 Noroeste 28 Oeste 0 909.5 1.3 71
2020-03-07 08:00:00 4 11 Oeste 26 Oeste 0 909.2 1.6 68
2020-03-07 07:00:00 3.3 5 Noroeste 23 Oeste 0 908.7 1.1 61
2020-03-07 06:00:00 3.5 5 Oeste 20 Oeste 0 908.2 0.4 55
2020-03-07 05:00:00 4.3 9 Sudoeste 24 Oeste 0 907.6 -0.5 53
2020-03-07 04:00:00 3.7 3 Noroeste 17 Sur 0 907.6 -0.3 56
2020-03-07 03:00:00 3.4 6 Oeste 17 Oeste 0 907.8 0.5 57
2020-03-07 02:00:00 3.4 6 Sudoeste 18 Sudoeste 0 908.1 0.6 60
2020-03-07 01:00:00 3.3 0 Calma 19 Sur 0 907.9 0.9 58
2020-03-07 00:00:00 2.7 4 Oeste 10 Oeste 0 907.3 1.8 59
2020-03-06 23:00:00 3.6 0 Calma 18 Noroeste 0 907.5 3.1 55
2020-03-06 22:00:00 4.7 2 Sudoeste 27 Noroeste 0 907 3.6 54
2020-03-06 21:00:00 5.4 4 Oeste 36 Noroeste 0 905.5 2.4 53
2020-03-06 20:00:00 5.7 14 Noroeste 48 Noroeste 0 904.4 1.9 53
2020-03-06 19:00:00 6 21 Noroeste 50 Noroeste 0 903.4 1.1 49
2020-03-06 18:00:00 7.2 19 Noroeste 53 Noroeste 0 903.1 1.2 49
2020-03-06 17:00:00 7.6 24 Noroeste 54 Noroeste 0 902.5 0.6 49
2020-03-06 16:00:00 7 26 Noroeste 53 Noroeste 0 902.3 0.3 50
2020-03-06 15:00:00 7.1 26 Noroeste 57 Noroeste 0 901.9 0.5 48
2020-03-06 14:00:00 6.1 22 Noroeste 54 Noroeste 0 901.9 -- 56
2020-03-06 13:00:00 5.7 22 Noroeste 54 Oeste 0 902 0.7 61
2020-03-06 12:00:00 6 32 Noroeste -- -- -- 901.4 0.6 60
2020-03-06 11:00:00 -- -- -- -- -- -- -- -- --
2020-03-06 10:00:00 4.4 18 Noroeste 60 Oeste 0 901.3 1.6 71
2020-03-06 09:00:00 4.1 27 Noroeste 57 Oeste 0 900.8 1.6 73
2020-03-06 08:00:00 3.6 23 Oeste 53 Oeste 0 900.5 1.4 75
2020-03-06 07:00:00 4.4 28 Noroeste 62 Oeste 0 899.7 0.1 70
2020-03-06 06:00:00 4.8 22 Noroeste 48 Noroeste 0.3 899.2 -0.8 70
2020-03-06 05:00:00 5 10 Oeste 42 Oeste 0.1 899.1 -1.6 75
2020-03-06 04:00:00 4.7 15 Oeste 40 Oeste 0 899.6 -1.5 75
2020-03-06 03:00:00 4.6 17 Oeste 44 Oeste 0 900 -1.2 71
2020-03-06 02:00:00 4.6 12 Oeste 44 Oeste 0 900.7 -0.3 73
2020-03-06 01:00:00 4.9 20 Oeste 39 Noroeste 0 901.1 0.4 73
2020-03-06 00:00:00 5.2 21 Noroeste 44 Oeste 0.4 901.2 0.6 76
2020-03-05 23:00:00 6.2 20 Noroeste 37 Noroeste 0 901 1.3 77
2020-03-05 22:00:00 6.6 18 Oeste 39 Oeste 0.5 900.7 1.7 77
2020-03-05 21:00:00 5.4 12 Noroeste 41 Noroeste 0.7 900.6 1.9 76
2020-03-05 20:00:00 8.8 11 Oeste 42 Oeste 0 899.7 1.3 58
2020-03-05 19:00:00 9.2 15 Oeste 40 Noroeste 0 899 1.5 56
2020-03-05 18:00:00 9.7 4 Noroeste 28 Noroeste 0 898.7 1.6 55
2020-03-05 17:00:00 9.6 5 Sudoeste 37 Oeste 0 898.4 0.6 54
2020-03-05 16:00:00 10.6 21 Oeste 64 Oeste 0 897.5 -0.8 54
2020-03-05 15:00:00 10.6 27 Oeste 63 Oeste 0 897.1 -2.1 53
2020-03-05 14:00:00 10.2 22 Oeste 49 Oeste 0 897.8 -0.5 52
2020-03-05 13:00:00 10.1 17 Oeste 45 Sudoeste 0 898.3 0.9 53
2020-03-05 12:00:00 8.9 18 Oeste 51 Noroeste 0.1 899.2 1.6 66
2020-03-05 11:00:00 8.9 13 Noroeste 28 Oeste 0.1 898.3 0.3 83
2020-03-05 10:00:00 7.8 3 Este 12 Nordeste 0 897.4 -0.7 91
2020-03-05 09:00:00 7.5 4 Este 9 Nordeste 0 897.6 -0.9 90
2020-03-05 08:00:00 6.7 4 Este 10 Este 0 898 -1.2 88
2020-03-05 07:00:00 6.6 5 Nordeste 12 Este 0 898.1 -2.1 88
2020-03-05 06:00:00 6.8 5 Este 13 Este 0 898.5 -2.9 86
2020-03-05 05:00:00 6.9 5 Nordeste 10 Este 0 899.2 -2.6 81
2020-03-05 04:00:00 7.3 3 Nordeste 9 Este 0 900.2 -2.9 80
2020-03-05 03:00:00 8.8 3 Oeste 7 Sudoeste 0 901.4 -2.4 76
2020-03-05 02:00:00 8.4 2 Este 9 Noroeste 0 901.8 -2.5 76
2020-03-05 01:00:00 9.6 0 Calma 9 Nordeste 0 903.1 -1.6 71
2020-03-05 00:00:00 9.7 0 Calma 11 Sur 0 903.8 -1 67
2020-03-04 23:00:00 10.7 3 Sudoeste 11 Sur 0 904.3 -0.8 63
2020-03-04 22:00:00 11.4 4 Sudoeste 15 Oeste 0 904.7 -0.1 60
2020-03-04 21:00:00 11.3 0 Calma 25 Oeste 0 904.8 0.1 60
2020-03-04 20:00:00 11.7 9 Oeste 26 Oeste 0 905.1 0 57
2020-03-04 19:00:00 11.5 12 Oeste 25 Oeste 0 904.8 -0.9 57
2020-03-04 18:00:00 12.5 9 Oeste 24 Oeste 0 904.7 -1.4 56
2020-03-04 17:00:00 12.4 12 Noroeste 26 Sudoeste 0 905.1 -1.3 60
2020-03-04 16:00:00 12.5 13 Noroeste 27 Noroeste 0 905.7 -1.3 57
2020-03-04 15:00:00 13.3 13 Oeste 35 Sudoeste 0 906.1 -0.8 54
2020-03-04 14:00:00 13.1 17 Oeste 35 Oeste 0 906.4 -0.5 56
2020-03-04 13:00:00 12 16 Oeste 32 Oeste 0 907 0.5 60
2020-03-04 12:00:00 11.4 6 Oeste 21 Noroeste 0 906.9 0.5 65
2020-03-04 11:00:00 11.3 9 Noroeste 28 Oeste 0 906.9 1.5 65
2020-03-04 10:00:00 11 6 Oeste 29 Noroeste 0 906.5 1.3 66
2020-03-04 09:00:00 10.5 9 Oeste 52 Oeste 0.1 906.4 1.2 69
2020-03-04 08:00:00 10.5 19 Noroeste 36 Noroeste 0 905.4 0.6 74
2020-03-04 07:00:00 10.7 7 Oeste 30 Oeste 0 905.2 0.4 75
2020-03-04 06:00:00 11.3 10 Noroeste 31 Oeste 0 905.2 0.4 75
2020-03-04 05:00:00 11.5 4 Sudoeste 31 Sudoeste 0 904.8 -0.1 76
2020-03-04 04:00:00 11.3 9 Oeste 44 Oeste 0 904.8 -0.5 80
2020-03-04 03:00:00 11.1 19 Oeste 45 Oeste 0 904.8 -0.3 82
2020-03-04 02:00:00 11.2 20 Noroeste 45 Noroeste 0.3 904.9 -0.1 83
2020-03-04 01:00:00 11.3 22 Noroeste 47 Noroeste 0 905.3 1.2 77
2020-03-04 00:00:00 12 20 Noroeste 35 Noroeste 0 905.1 1.6 74
2020-03-03 23:00:00 11.8 17 Noroeste 49 Oeste 0 905 1.8 71
2020-03-03 22:00:00 12 23 Noroeste 47 Oeste 0 904.1 1.7 64
2020-03-03 21:00:00 12.5 20 Oeste 52 Oeste 0 903.5 2 64
2020-03-03 20:00:00 12.7 21 Noroeste 56 Oeste 0 903.2 2.1 65
2020-03-03 19:00:00 13 24 Oeste 53 Noroeste 0 902.4 1.5 60
2020-03-03 18:00:00 13.2 25 Oeste 48 Noroeste 0 901.5 0.8 57
2020-03-03 17:00:00 13.3 23 Oeste 54 Oeste 0 901.1 0.4 60
2020-03-03 16:00:00 13.9 24 Oeste 54 Noroeste 0 900.9 0.2 57
2020-03-03 15:00:00 13.2 24 Oeste 66 Oeste 0 900.7 0 63
2020-03-03 14:00:00 12.8 27 Oeste 66 Oeste 0 900.7 0.1 67
2020-03-03 13:00:00 12.3 27 Oeste 59 Oeste 0 900.7 0.2 67
2020-03-03 12:00:00 11.2 21 Oeste 56 Oeste 0 900.7 0.3 67
2020-03-03 11:00:00 10.4 20 Oeste 61 Oeste 0 900.6 -0.1 68
2020-03-03 10:00:00 8.1 16 Oeste 61 Sudoeste 0 900.5 -0.7 75
2020-03-03 09:00:00 6.9 13 Oeste 37 Oeste 0.1 900.4 -0.9 76
2020-03-03 08:00:00 4.7 5 Nordeste 21 Nordeste 0.3 900.7 -0.7 88
2020-03-03 07:00:00 4.8 6 Sur 16 Sudoeste 0.1 901.2 -0.6 77
2020-03-03 06:00:00 5.1 3 Sudeste 19 Sur 0 901.3 -1.1 71
2020-03-03 05:00:00 4.6 0 Calma 10 Sudeste 0 901.4 -1.5 70
2020-03-03 04:00:00 4.5 3 Sudeste 9 Este 0 901.8 -0.7 67
2020-03-03 03:00:00 4.4 4 Nordeste 16 Oeste 0 902.4 -0.1 66
2020-03-03 02:00:00 4.3 4 Oeste 20 Oeste 0 902.9 0.7 65
2020-03-03 01:00:00 4.3 5 Sudoeste 33 Sudoeste 0 902.5 0.3 65
2020-03-03 00:00:00 4.2 14 Oeste 48 Oeste 0 902.5 0.5 66
2020-03-02 23:00:00 4.5 20 Oeste 50 Oeste 0 902.2 0.7 64
2020-03-02 22:00:00 4.7 22 Noroeste 46 Noroeste 0 902.2 1.8 60
2020-03-02 21:00:00 4.7 20 Oeste 41 Oeste 0 902 3.3 60
2020-03-02 20:00:00 5 12 Noroeste 32 Oeste 0 901.5 4 58
2020-03-02 19:00:00 5 15 Noroeste 37 Noroeste 0 900.4 3.8 56
2020-03-02 18:00:00 5.8 16 Noroeste 51 Oeste 0 898.7 3 52
2020-03-02 17:00:00 6.3 23 Noroeste 62 Oeste 0 897.5 2.4 50
2020-03-02 16:00:00 6.2 27 Oeste 56 Noroeste 0.4 896.6 2.2 53
2020-03-02 15:00:00 3.5 26 Noroeste 61 Oeste 1 895.7 1.8 82
2020-03-02 14:00:00 6.3 28 Oeste 62 Oeste 0.1 895.1 1.5 63
2020-03-02 13:00:00 5 21 Oeste 46 Noroeste 0.6 894.4 1.6 73
2020-03-02 12:00:00 6.6 17 Oeste 61 Oeste 0.4 893.9 2.3 70
2020-03-02 11:00:00 5.7 26 Oeste 67 Oeste 1.5 893.6 3.2 71
2020-03-02 10:00:00 4.5 23 Oeste 70 Noroeste 1.3 892.8 4.1 80
2020-03-02 09:00:00 6.2 27 Oeste 77 Noroeste 0.7 891.6 4.7 72
2020-03-02 08:00:00 5 34 Noroeste 79 Oeste 0.6 890.4 3.1 74
2020-03-02 07:00:00 7.3 33 Oeste 92 Oeste 0.5 888.7 1.7 71
2020-03-02 06:00:00 11 39 Oeste 83 Sudoeste 0 886.9 -1.6 61
2020-03-02 05:00:00 11.3 22 Oeste 67 Oeste 0.1 887.3 -2 65
2020-03-02 04:00:00 10.9 22 Oeste 73 Oeste 0 887 -3.4 67
2020-03-02 03:00:00 11.4 19 Sudoeste 55 Oeste 0.6 888.5 -3.7 66
2020-03-02 02:00:00 11.1 13 Sudoeste 49 Sudoeste 0.8 889.3 -3.6 75
2020-03-02 01:00:00 9.6 5 Sur 22 Oeste 1.6 890.4 -3.7 87
2020-03-02 00:00:00 10 6 Sur 28 Sur 1.9 892.2 -3 86
2020-03-01 23:00:00 9.9 10 Sur 30 Sudeste 0.1 892.9 -3.4 86
2020-03-01 22:00:00 9.5 12 Sur 30 Sudeste 0 894.1 -1.9 87
2020-03-01 21:00:00 9.3 8 Sudeste 26 Sur 0.1 895.2 -1.8 86
2020-03-01 20:00:00 10 9 Sur 18 Sudeste 0 896.3 -0.8 79
2020-03-01 19:00:00 10.7 4 Nordeste 14 Sudoeste 0 896 -1.6 75
2020-03-01 18:00:00 11.5 9 Sur 34 Sudoeste 0 897 -1 62
2020-03-01 17:00:00 13.4 13 Sudoeste 44 Oeste 0 897.1 -1.9 50
2020-03-01 16:00:00 14.1 14 Oeste 80 Oeste 0 897.6 -2 48
2020-03-01 15:00:00 12.9 13 Sur 26 Sudoeste 0 898 -1.8 58
2020-03-01 14:00:00 12.4 11 Sudoeste 30 Sudoeste 0 899 -0.7 65
2020-03-01 13:00:00 10.9 11 Oeste 31 Sudoeste 0 899.6 0.1 66
2020-03-01 12:00:00 10.4 9 Sudoeste 34 Oeste 0 899.8 0.4 71
2020-03-01 11:00:00 7.8 5 Este 27 Oeste 0 899.7 1.7 84
2020-03-01 10:00:00 7.7 3 Oeste 28 Oeste 0 899.5 0.8 83
2020-03-01 09:00:00 6.7 3 Sur 19 Sur 0 899.4 1 76
2020-03-01 08:00:00 7.3 6 Sudoeste 31 Oeste 0 898 0 71
2020-03-01 07:00:00 7.3 2 Sudoeste 29 Oeste 0 898.7 0.1 71
2020-03-01 06:00:00 7.4 4 Oeste 24 Sur 0 898.4 -0.8 72
2020-03-01 05:00:00 7.1 11 Sur 22 Sur 0 898 -1.4 73
2020-03-01 04:00:00 6.7 10 Sudoeste 23 Sudoeste 0 898.6 -1.3 75
2020-03-01 03:00:00 6.4 3 Noroeste 8 Este 0 899.2 -0.6 71
2020-03-01 02:00:00 7.2 2 Norte 15 Sur 0 899.4 -0.9 64
2020-03-01 01:00:00 7.5 0 Calma 27 Sudoeste 0 899.9 -0.2 61
2020-03-01 00:00:00 7.9 13 Oeste 33 Oeste 0 899.8 -0.3 58
2020-02-29 23:00:00 7.5 13 Sudoeste 30 Sudoeste 0 900.3 0.5 61
2020-02-29 22:00:00 7.5 10 Oeste 23 Oeste 0 900.1 1.1 63
2020-02-29 21:00:00 7.9 8 Oeste 19 Noroeste 0 900.1 1.9 63
2020-02-29 20:00:00 8.6 8 Noroeste 22 Noroeste 0 899.8 2 62
2020-02-29 19:00:00 10.2 9 Noroeste 21 Oeste 0 899 1.7 63
2020-02-29 18:00:00 11.2 7 Noroeste 27 Oeste 0 898.2 1.2 63
2020-02-29 17:00:00 14.1 5 Oeste 33 Oeste 0 897.8 -0.3 49
2020-02-29 16:00:00 12.7 3 Norte 18 Sudeste 0 897.3 -1.6 69
2020-02-29 15:00:00 11.5 9 Este 19 Nordeste 0 897 -2 72
2020-02-29 14:00:00 9.9 7 Este 21 Sudeste 0 898.1 -0.9 80
2020-02-29 13:00:00 8.5 9 Sudeste 23 Este 0 898.9 0 76
2020-02-29 12:00:00 8.2 10 Este 21 Este 0 899 0.4 74
2020-02-29 11:00:00 7.6 6 Sudeste 20 Este 0 899 0.8 73
2020-02-29 10:00:00 6.5 6 Este 17 Este 0 898.9 0.3 75
2020-02-29 09:00:00 6.3 7 Nordeste 16 Nordeste 0 898.6 -0.2 76
2020-02-29 08:00:00 4.7 6 Nordeste 13 Nordeste 0 898.2 -0.4 82
2020-02-29 07:00:00 3.7 4 Nordeste 10 Este 0 898.6 -0.8 83
2020-02-29 06:00:00 2.6 0 Calma 10 Este 0 898.8 -1.1 80
2020-02-29 05:00:00 5.4 4 Nordeste 14 Nordeste 0 898.6 -2 74
2020-02-29 04:00:00 2.7 4 Noroeste 10 Nordeste 0 899.4 -1.8 88
2020-02-29 03:00:00 1.3 0 Calma 6 Oeste 0 899.9 -2 87
2020-02-29 02:00:00 1.9 0 Calma 8 Noroeste 0 900.6 -1.9 85
2020-02-29 01:00:00 2.3 3 Noroeste 8 Noroeste 0 901.2 -1.5 85
2020-02-29 00:00:00 2.6 0 Calma 7 Norte 0 901.9 -0.9 83